Terminal Aerodrome Forecast
Issued by NWS

Home | Current Version | Previous Version | Text Only | Print | Product List | Glossary On
Versions: 1 2 3 4 5 6 7 8 9 10 11 12
000
FTAK31 PAFA 281740
TAFAOT
TAF
PAOT 281740Z 2818/2918 30017KT P6SM VCSH SCT016 BKN023
     FM290300 30018KT P6SM SCT025 BKN035 BKN050
     FM291400 19008KT P6SM OVC025=

USA.gov is the U.S. government's official web portal to all federal, state and local government web resources and services.